Time;durP1;ratioP1;P1;durP2;ratioP2;P2;SDS_P1;SDS_P2;PMS_P1;PMS_P2;Temp;Humidity;BMP_temperature;BMP_pressure;BME280_temperature;BME280_humidity;BME280_pressure;Samples;Min_cycle;Max_cycle;Signal;HPM_P1;HPM_P2
2021/12/05 00:17:29;;;;;;;11.05;5.15;;;;;;;3.62;79.46;95931.53;5093310;28;20043;-66
2021/12/05 00:22:20;;;;;;;6.70;3.45;;;;;;;3.52;78.72;95917.94;5092647;28;20055;-66
2021/12/05 00:24:50;;;;;;;5.82;3.92;;;;;;;3.48;78.34;95921.47;5092996;28;20089;-61
2021/12/05 00:27:20;;;;;;;3.88;3.25;;;;;;;3.41;78.43;95929.34;5092799;28;20039;-63
2021/12/05 00:32:33;;;;;;;3.55;3.25;;;;;;;3.36;77.78;95932.91;5092952;28;20024;-66
2021/12/05 00:49:13;;;;;;;7.07;4.68;;;;;;;2.75;80.22;95936.56;5092672;28;20020;-66
2021/12/05 01:13:44;;;;;;;16.90;5.97;;;;;;;2.70;81.11;95933.19;5096341;28;20462;-63
2021/12/05 01:16:08;;;;;;;8.40;5.68;;;;;;;2.70;80.23;95926.28;5094662;28;20054;-66
2021/12/05 01:18:35;;;;;;;7.07;5.70;;;;;;;2.69;79.84;95932.34;5095948;28;20028;-63
2021/12/05 01:21:07;;;;;;;13.50;5.38;;;;;;;2.61;80.08;95923.84;5095678;28;20024;-65
2021/12/05 01:23:53;;;;;;;8.52;5.90;;;;;;;2.46;79.90;95930.13;5095726;28;20089;-66
2021/12/05 01:26:28;;;;;;;6.38;5.13;;;;;;;2.42;80.25;95931.03;5095750;28;20047;-62
2021/12/05 01:53:17;;;;;;;17.85;5.40;;;;;;;2.41;81.08;95925.06;5086712;28;20044;-66
2021/12/05 02:34:42;;;;;;;348.33;14.80;;;;;;;3.09;84.92;95907.53;5094552;28;20061;-62
2021/12/05 02:42:48;;;;;;;110.28;9.32;;;;;;;3.17;84.22;95899.66;5094426;28;20035;-65
2021/12/05 02:45:14;;;;;;;188.38;10.02;;;;;;;3.22;84.01;95892.66;5094322;28;20028;-67
2021/12/05 02:47:47;;;;;;;68.22;8.15;;;;;;;3.19;84.22;95894.44;5094326;28;20394;-64
2021/12/05 02:50:13;;;;;;;55.83;7.35;;;;;;;3.15;84.36;95896.22;5094212;28;20106;-63
2021/12/05 02:52:40;;;;;;;29.58;6.90;;;;;;;3.17;84.42;95894.47;5094152;28;20038;-64
2021/12/05 02:55:12;;;;;;;10.20;6.60;;;;;;;3.21;84.29;95893.53;5094034;28;20031;-63
2021/12/05 02:57:55;;;;;;;10.43;6.70;;;;;;;3.26;84.48;95890.88;5094140;28;20458;-63
2021/12/05 03:01:06;;;;;;;15.38;7.68;;;;;;;3.25;84.20;95889.16;5094041;28;20469;-63
2021/12/05 03:03:22;;;;;;;12.02;7.30;;;;;;;3.23;84.37;95899.53;5093582;28;20049;-65
2021/12/05 03:05:55;;;;;;;11.20;7.43;;;;;;;3.26;83.97;95902.06;5094013;28;20385;-64
2021/12/05 03:08:22;;;;;;;143.65;11.00;;;;;;;3.33;83.74;95897.63;5093930;28;20035;-65
2021/12/05 03:10:49;;;;;;;11.63;7.60;;;;;;;3.36;83.44;95892.38;5093816;28;20021;-63
2021/12/05 03:13:15;;;;;;;12.00;7.78;;;;;;;3.37;83.24;95899.25;5093703;28;20054;-65
2021/12/05 03:15:40;;;;;;;8.85;7.00;;;;;;;3.42;82.87;95891.41;5093610;28;20020;-63
2021/12/05 03:18:06;;;;;;;8.30;5.65;;;;;;;3.44;82.56;95879.31;5093680;28;20032;-66
2021/12/05 03:20:32;;;;;;;8.20;5.88;;;;;;;3.35;82.90;95887.25;5093455;28;20432;-63
2021/12/05 03:22:58;;;;;;;8.55;6.00;;;;;;;3.31;82.96;95883.84;5093370;28;20052;-65
2021/12/05 03:25:24;;;;;;;5.95;5.05;;;;;;;3.40;83.10;95881.09;5093476;28;20017;-64
2021/12/05 03:27:50;;;;;;;7.03;5.80;;;;;;;3.46;82.78;95877.53;5093547;28;20528;-62
2021/12/05 03:30:21;;;;;;;9.23;5.68;;;;;;;3.47;82.62;95874.09;5093611;28;20077;-62
2021/12/05 03:32:50;;;;;;;7.07;5.05;;;;;;;3.51;82.54;95864.50;5093629;28;20386;-65
2021/12/05 03:35:17;;;;;;;5.68;4.88;;;;;;;3.52;82.33;95879.13;5093497;28;20032;-65
2021/12/05 03:37:43;;;;;;;5.68;5.07;;;;;;;3.53;82.47;95871.34;5093258;28;20086;-63
2021/12/05 03:40:09;;;;;;;8.27;5.55;;;;;;;3.57;82.55;95871.28;5093335;28;20028;-64
2021/12/05 03:42:36;;;;;;;5.68;4.70;;;;;;;3.60;82.50;95873.81;5093122;28;20115;-63
2021/12/05 03:45:05;;;;;;;9.23;4.18;;;;;;;3.61;82.40;95873.78;5093244;28;20020;-65
2021/12/05 03:47:30;;;;;;;5.68;4.68;;;;;;;3.60;82.53;95885.00;5093197;28;20035;-64
2021/12/05 03:49:56;;;;;;;5.32;4.47;;;;;;;3.63;82.22;95884.09;5093184;28;20072;-65
2021/12/05 03:52:23;;;;;;;6.10;5.50;;;;;;;3.65;82.52;95883.16;5093202;28;20460;-64
2021/12/05 03:54:49;;;;;;;6.70;5.90;;;;;;;3.70;82.60;95887.41;5093294;28;20458;-62
2021/12/05 03:57:14;;;;;;;9.68;6.53;;;;;;;3.70;82.68;95893.41;5093090;28;20035;-64
2021/12/05 03:59:40;;;;;;;7.95;6.40;;;;;;;3.73;82.76;95883.00;5093090;28;20036;-62
2021/12/05 04:02:08;;;;;;;7.68;6.78;;;;;;;3.78;82.79;95888.94;5093056;28;20598;-62
2021/12/05 04:04:33;;;;;;;7.40;6.22;;;;;;;3.77;82.77;95888.97;5093222;28;20016;-65
2021/12/05 04:07:00;;;;;;;11.32;6.97;;;;;;;3.76;82.52;95890.72;5093177;28;20354;-62
2021/12/05 04:09:26;;;;;;;10.05;6.60;;;;;;;3.76;82.33;95892.44;5091740;28;20063;-66
2021/12/05 04:11:58;;;;;;;10.82;6.97;;;;;;;3.72;82.60;95895.97;5093113;28;20044;-63
2021/12/05 04:14:26;;;;;;;8.65;5.60;;;;;;;3.69;82.59;95911.56;5093008;28;20107;-65
2021/12/05 04:16:52;;;;;;;12.88;7.07;;;;;;;3.71;82.93;95907.22;5093120;28;20081;-62
2021/12/05 04:19:18;;;;;;;11.43;7.20;;;;;;;3.73;82.79;95911.47;5092950;28;20024;-66
2021/12/05 04:21:44;;;;;;;12.73;7.80;;;;;;;3.76;83.18;95911.41;5092611;28;20042;-64
2021/12/05 04:24:12;;;;;;;14.52;8.48;;;;;;;3.81;83.09;95915.63;5093034;28;20020;-64
2021/12/05 04:26:39;;;;;;;14.13;8.48;;;;;;;3.84;83.15;95913.84;5093027;28;20019;-66
2021/12/05 04:29:05;;;;;;;13.27;8.82;;;;;;;3.89;82.92;95921.50;5092908;28;20024;-63
2021/12/05 04:31:32;;;;;;;17.95;9.48;;;;;;;3.94;83.12;95916.25;5092823;28;20027;-62
2021/12/05 04:33:58;;;;;;;14.48;8.63;;;;;;;3.98;83.15;95905.78;5094973;28;20024;-64
2021/12/05 04:36:23;;;;;;;11.15;7.22;;;;;;;4.01;82.82;95903.09;5096849;28;20021;-64
2021/12/05 04:38:49;;;;;;;11.85;7.05;;;;;;;3.97;82.54;95901.47;5096733;28;20016;-63
2021/12/05 04:41:15;;;;;;;12.02;8.05;;;;;;;3.91;82.47;95902.47;5096731;28;20062;-62
2021/12/05 04:43:41;;;;;;;11.65;8.15;;;;;;;3.89;83.12;95909.41;5096537;28;20031;-64
2021/12/05 04:46:15;;;;;;;12.20;8.45;;;;;;;3.94;83.14;95913.66;5096634;28;20024;-64
2021/12/05 04:48:44;;;;;;;12.98;8.13;;;;;;;3.90;83.35;95918.88;5096584;28;20031;-65
2021/12/05 04:51:09;;;;;;;13.02;7.28;;;;;;;3.95;83.56;95917.94;5096429;28;20020;-64
2021/12/05 04:53:36;;;;;;;9.73;7.20;;;;;;;3.96;83.22;95920.50;5096410;28;20379;-63
2021/12/05 04:56:03;;;;;;;13.73;8.15;;;;;;;3.95;83.69;95917.94;5096375;28;20059;-62
2021/12/05 04:58:28;;;;;;;11.98;8.00;;;;;;;4.01;83.52;95915.22;5096466;28;20412;-64
2021/12/05 05:00:57;;;;;;;13.80;8.15;;;;;;;4.07;83.46;95914.22;5096382;28;20066;-65
2021/12/05 05:03:24;;;;;;;20.73;9.85;;;;;;;4.08;83.17;95915.91;5096132;28;20028;-65
2021/12/05 05:05:57;;;;;;;15.27;9.63;;;;;;;4.14;83.15;95918.38;5096189;28;20104;-63
2021/12/05 05:08:26;;;;;;;17.13;10.60;;;;;;;4.15;83.17;95909.72;5096152;28;20057;-66
2021/12/05 05:10:51;;;;;;;15.65;9.98;;;;;;;4.20;82.83;95917.38;5096093;28;20085;-66
2021/12/05 05:13:17;;;;;;;20.25;10.50;;;;;;;4.19;82.93;95913.97;5096104;28;20023;-64
2021/12/05 05:15:43;;;;;;;17.33;11.35;;;;;;;4.24;82.79;95913.88;5095989;28;20052;-65
2021/12/05 05:18:10;;;;;;;19.70;10.88;;;;;;;4.23;82.79;95917.31;5095946;28;20028;-65
2021/12/05 05:39:09;;;;;;;14.55;8.98;;;;;;;4.11;82.81;95927.06;5095790;28;20024;-64
2021/12/05 05:47:31;;;;;;;13.57;9.52;;;;;;;4.23;83.02;95954.44;5095471;28;20398;-65
2021/12/05 05:49:59;;;;;;;13.98;8.43;;;;;;;4.29;82.97;95962.06;5095329;28;20394;-65
2021/12/05 05:52:27;;;;;;;15.32;10.15;;;;;;;4.32;82.97;95963.72;5095278;28;20020;-63
2021/12/05 05:54:55;;;;;;;16.00;10.15;;;;;;;4.35;83.28;95963.66;5093943;28;20432;-63
2021/12/05 05:57:25;;;;;;;14.00;9.55;;;;;;;4.40;82.88;95974.75;5095213;28;20032;-64
2021/12/05 06:00:07;;;;;;;11.80;9.05;;;;;;;4.46;82.82;95975.50;5095199;28;20088;-63
2021/12/05 06:05:17;;;;;;;15.77;10.68;;;;;;;4.43;82.86;95976.44;5095444;28;20034;-66
2021/12/05 06:07:45;;;;;;;13.90;10.10;;;;;;;4.42;83.11;95972.13;5095040;28;20021;-62
2021/12/05 06:10:13;;;;;;;17.25;10.30;;;;;;;4.41;83.26;95976.47;5095018;28;20024;-66
2021/12/05 06:12:39;;;;;;;12.95;9.55;;;;;;;4.41;83.14;95970.44;5094918;28;20021;-62
2021/12/05 06:15:07;;;;;;;17.15;9.73;;;;;;;4.42;83.19;95973.00;5094896;28;20024;-60
2021/12/05 06:17:33;;;;;;;14.93;9.95;;;;;;;4.48;83.27;95979.75;5094856;28;20521;-65
2021/12/05 06:19:59;;;;;;;12.95;9.90;;;;;;;4.52;82.91;95973.63;5094722;28;20059;-63
2021/12/05 06:22:25;;;;;;;13.55;9.40;;;;;;;4.52;82.88;95973.63;5094368;28;20040;-63
2021/12/05 06:24:51;;;;;;;12.85;10.13;;;;;;;4.51;82.76;95966.75;5094608;28;20028;-64
2021/12/05 06:27:16;;;;;;;12.60;10.15;;;;;;;4.52;83.15;95968.44;5094622;28;20446;-65
2021/12/05 06:29:50;;;;;;;15.60;10.15;;;;;;;4.56;83.18;95977.00;5094502;28;20405;-64
2021/12/05 06:37:53;;;;;;;40.50;20.33;;;;;;;4.69;83.08;95980.16;5094727;28;20118;-63
2021/12/05 06:41:10;;;;;;;23.30;14.15;;;;;;;4.72;83.04;95979.25;5094339;28;20035;-65
2021/12/05 06:46:00;;;;;;;13.73;10.10;;;;;;;4.76;83.29;95986.06;5091195;28;20039;-66
2021/12/05 06:46:01;;;;;;;14.50;10.73;;;;;;;4.77;82.98;95991.19;5094304;28;20028;-65
2021/12/05 06:48:27;;;;;;;19.58;10.60;;;;;;;4.81;83.21;95999.75;5094186;28;20058;-65
2021/12/05 06:50:53;;;;;;;13.10;10.27;;;;;;;4.83;83.27;95991.94;5094056;28;20016;-63
2021/12/05 06:53:18;;;;;;;12.70;10.30;;;;;;;4.88;83.20;95992.69;5094073;28;20024;-63
2021/12/05 06:55:44;;;;;;;14.02;10.73;;;;;;;4.92;83.32;96004.69;5092364;28;20032;-63
2021/12/05 06:58:10;;;;;;;14.90;10.25;;;;;;;4.96;83.24;96001.13;5094191;28;20081;-64
2021/12/05 07:00:36;;;;;;;15.45;10.25;;;;;;;4.99;83.32;96001.03;5094016;28;20103;-65
2021/12/05 07:03:01;;;;;;;12.98;9.80;;;;;;;5.07;82.98;96003.44;5093850;28;20494;-64
2021/12/05 07:05:42;;;;;;;14.63;11.00;;;;;;;5.10;82.74;95998.19;5093953;28;20024;-64
2021/12/05 07:08:10;;;;;;;16.38;10.75;;;;;;;5.15;83.35;96004.09;5093955;28;20028;-65
2021/12/05 07:10:46;;;;;;;11.25;9.50;;;;;;;5.21;83.53;96017.81;5093743;28;20035;-65
2021/12/05 07:21:26;;;;;;;11.75;8.40;;;;;;;5.43;82.97;95997.38;5093926;28;20031;-64
2021/12/05 07:24:03;;;;;;;9.33;8.00;;;;;;;5.46;82.91;96002.47;5093641;28;20036;-64
2021/12/05 07:42:46;;;;;;;6.22;5.63;;;;;;;5.71;82.70;96014.78;5093266;28;20115;-64
2021/12/05 07:45:18;;;;;;;8.38;5.95;;;;;;;5.70;82.36;96007.91;5093214;28;20114;-65
2021/12/05 07:47:46;;;;;;;6.88;5.18;;;;;;;5.72;82.08;95995.72;5093268;28;20032;-66
2021/12/05 07:50:13;;;;;;;7.50;6.40;;;;;;;5.76;82.15;95997.38;5093134;28;20028;-66
2021/12/05 07:52:43;;;;;;;10.07;5.75;;;;;;;5.76;82.18;95992.16;5093187;28;20024;-66
2021/12/05 07:55:26;;;;;;;7.40;6.15;;;;;;;5.79;82.44;95989.50;5093033;28;20032;-65
2021/12/05 08:00:39;;;;;;;13.50;10.20;;;;;;;5.89;82.66;95976.22;5093212;28;20073;-65
2021/12/05 08:16:49;;;;;;;5.93;5.30;;;;;;;6.19;80.42;95974.53;5097401;28;20109;-66
2021/12/05 08:19:15;;;;;;;8.80;5.90;;;;;;;6.26;80.17;95969.16;5097092;28;20098;-62
2021/12/05 08:21:41;;;;;;;7.57;5.35;;;;;;;6.31;79.92;95965.53;5096763;28;20074;-66
2021/12/05 08:24:07;;;;;;;7.55;5.03;;;;;;;6.37;79.86;95967.09;5097112;28;20020;-63
2021/12/05 08:26:34;;;;;;;6.25;5.05;;;;;;;6.38;79.23;95966.19;5096945;28;20039;-65
2021/12/05 08:29:15;;;;;;;6.03;4.63;;;;;;;6.40;79.02;95961.81;5095707;28;20034;-63
2021/12/05 09:24:06;;;;;;;13.77;8.88;;;;;;;6.85;80.73;95945.69;5095783;28;20064;-64
2021/12/05 09:29:21;;;;;;;9.98;7.25;;;;;;;6.96;79.95;95946.19;5095858;28;20474;-61
2021/12/05 10:07:55;;;;;;;9.63;7.22;;;;;;;7.70;77.81;95915.91;5083757;28;20043;-65
2021/12/05 10:38:00;;;;;;;5.47;4.97;;;;;;;8.85;74.61;95861.13;5083113;28;20040;-65
2021/12/05 10:40:38;;;;;;;6.05;5.07;;;;;;;9.05;73.76;95860.28;5094444;28;20032;-64
2021/12/05 10:43:12;;;;;;;6.88;5.50;;;;;;;9.25;72.22;95855.13;5094355;28;20043;-62
2021/12/05 10:45:42;;;;;;;7.97;5.03;;;;;;;9.35;71.28;95851.19;5094430;28;20547;-65
2021/12/05 10:48:20;;;;;;;8.93;6.22;;;;;;;9.41;71.00;95837.00;5094525;28;20043;-65
2021/12/05 10:50:59;;;;;;;8.48;5.78;;;;;;;9.45;70.11;95844.66;5094270;28;20030;-61
2021/12/05 10:53:39;;;;;;;14.68;5.60;;;;;;;9.45;70.83;95836.00;5094240;28;20024;-61
2021/12/05 10:56:23;;;;;;;6.20;5.22;;;;;;;9.57;70.96;95829.38;5094124;28;20549;-64
2021/12/05 10:58:48;;;;;;;8.32;5.32;;;;;;;9.63;71.06;95838.69;5094084;28;20031;-64
2021/12/05 11:01:51;;;;;;;9.40;5.35;;;;;;;9.77;70.32;95833.66;5094025;28;20417;-66
2021/12/05 11:04:50;;;;;;;7.63;6.82;;;;;;;9.89;71.58;95834.84;5093962;28;20107;-65
2021/12/05 11:07:21;;;;;;;7.55;6.75;;;;;;;9.91;69.90;95833.03;5093997;28;20451;-65
2021/12/05 11:09:50;;;;;;;8.07;6.60;;;;;;;10.02;69.79;95827.28;5093930;28;20028;-62
2021/12/05 11:12:18;;;;;;;8.65;6.53;;;;;;;10.05;68.57;95829.75;5093783;28;20024;-65
2021/12/05 11:14:48;;;;;;;8.95;6.88;;;;;;;9.92;68.26;95832.09;5093830;28;20016;-63
2021/12/05 11:17:15;;;;;;;13.20;6.47;;;;;;;9.82;69.12;95828.22;5093748;28;20551;-63
2021/12/05 11:19:47;;;;;;;7.15;6.45;;;;;;;9.81;68.83;95824.75;5093697;28;20111;-66
2021/12/05 11:22:17;;;;;;;7.88;5.88;;;;;;;9.78;66.30;95814.44;5093475;28;20044;-66
2021/12/05 11:25:06;;;;;;;6.55;5.68;;;;;;;9.73;68.06;95813.84;5093587;28;20105;-65
2021/12/05 11:27:47;;;;;;;5.97;5.35;;;;;;;9.77;67.95;95822.34;5093601;28;20028;-61
2021/12/05 11:30:16;;;;;;;9.57;7.40;;;;;;;9.65;69.28;95818.53;5093590;28;20111;-64
2021/12/05 11:32:52;;;;;;;9.75;7.65;;;;;;;9.61;69.73;95821.28;5093422;28;20173;-63
2021/12/05 11:35:33;;;;;;;9.90;8.07;;;;;;;9.69;69.47;95815.72;5093502;28;20520;-67
2021/12/05 11:38:08;;;;;;;;;;;;;;;9.65;68.92;95808.97;5093858;28;20039;-64
2021/12/05 11:40:47;;;;;;;11.90;7.43;;;;;;;9.41;69.94;95818.75;5093335;28;20274;-60
2021/12/05 11:43:29;;;;;;;11.93;8.50;;;;;;;9.18;71.39;95825.84;5093147;28;20050;-62
2021/12/05 11:46:08;;;;;;;8.43;7.53;;;;;;;8.92;71.79;95812.16;5093307;28;20073;-60
2021/12/05 11:48:48;;;;;;;11.32;7.47;;;;;;;8.95;71.53;95802.47;5093291;28;20028;-63
2021/12/05 11:51:34;;;;;;;8.30;7.22;;;;;;;9.02;70.91;95795.19;5093285;28;20027;-65
2021/12/05 11:54:14;;;;;;;8.10;6.57;;;;;;;9.05;71.06;95784.63;5093243;28;20032;-66
2021/12/05 11:56:51;;;;;;;12.75;8.10;;;;;;;8.97;71.84;95779.75;5093219;28;20042;-67
2021/12/05 11:59:36;;;;;;;10.75;7.85;;;;;;;8.95;72.24;95775.53;5093333;28;20430;-64
2021/12/05 12:02:17;;;;;;;9.13;7.80;;;;;;;9.01;71.98;95771.78;5093128;28;20026;-64
2021/12/05 12:04:58;;;;;;;;;;;;;;;9.02;72.27;95773.47;5093491;28;20430;-66
2021/12/05 12:07:42;;;;;;;12.13;8.73;;;;;;;9.01;72.32;95764.81;5093265;28;20293;-65
2021/12/05 12:10:15;;;;;;;80.65;48.53;;;;;;;9.04;73.04;95762.09;5093149;28;20036;-66
2021/12/05 12:12:45;;;;;;;20.00;13.25;;;;;;;9.05;72.62;95763.75;5091817;28;20456;-65
2021/12/05 12:15:14;;;;;;;8.55;6.55;;;;;;;8.98;72.44;95771.00;5093006;28;20034;-63
2021/12/05 12:17:41;;;;;;;11.55;9.55;;;;;;;8.93;72.66;95772.97;5093001;28;20040;-64
2021/12/05 12:20:11;;;;;;;16.70;9.10;;;;;;;8.65;72.50;95776.78;5092947;28;20060;-64
2021/12/05 12:22:38;;;;;;;9.98;8.57;;;;;;;8.57;73.59;95779.72;5092729;28;20040;-65
2021/12/05 12:25:09;;;;;;;12.15;9.45;;;;;;;8.53;73.80;95782.47;5092916;28;20028;-62
2021/12/05 12:27:34;;;;;;;11.05;9.35;;;;;;;8.43;74.20;95782.03;5092646;28;20021;-68
2021/12/05 12:30:03;;;;;;;10.25;9.07;;;;;;;8.28;73.82;95775.69;5087436;28;20066;-66
2021/12/05 12:32:43;;;;;;;10.05;8.95;;;;;;;8.30;74.34;95779.91;5081744;28;20031;-67
2021/12/05 12:35:14;;;;;;;10.18;7.10;;;;;;;8.35;74.24;95787.53;5072731;28;20028;-66
2021/12/05 12:37:56;;;;;;;13.30;9.75;;;;;;;8.40;73.88;95782.97;5072621;28;20039;-63
2021/12/05 12:40:49;;;;;;;11.73;10.13;;;;;;;8.41;73.78;95792.50;5091282;28;20032;-66
2021/12/05 12:43:38;;;;;;;10.23;9.02;;;;;;;8.40;74.01;95797.78;5091339;28;20032;-68
2021/12/05 12:46:21;;;;;;;13.95;12.15;;;;;;;8.42;74.09;95799.41;5092683;28;20032;-61
2021/12/05 12:48:52;;;;;;;10.60;9.38;;;;;;;8.44;73.96;95794.13;5089717;28;20032;-63
2021/12/05 12:51:28;;;;;;;14.45;10.93;;;;;;;8.44;73.91;95794.13;5072518;28;20032;-65
2021/12/05 12:54:01;;;;;;;10.57;9.48;;;;;;;8.37;74.01;95797.91;5072883;28;20029;-65
2021/12/05 12:56:29;;;;;;;9.38;8.20;;;;;;;8.30;74.74;95789.47;5075015;28;20035;-62
2021/12/05 12:59:20;;;;;;;13.00;9.32;;;;;;;8.36;74.05;95794.44;5077180;28;20070;-65
2021/12/05 13:10:06;;;;;;;9.70;8.45;;;;;;;8.46;73.37;95789.72;5094059;28;20586;-64
2021/12/05 13:12:49;;;;;;;10.05;7.78;;;;;;;8.40;72.70;95789.97;5075828;28;20079;-68
2021/12/05 13:15:29;;;;;;;12.70;7.28;;;;;;;8.37;72.09;95787.47;5075928;28;20032;-63
2021/12/05 13:18:29;;;;;;;10.07;8.43;;;;;;;8.33;73.79;95786.75;5075975;28;20021;-67
2021/12/05 13:21:04;;;;;;;8.75;7.75;;;;;;;8.30;73.64;95792.09;5087379;28;20386;-62
2021/12/05 13:23:50;;;;;;;11.30;9.15;;;;;;;8.40;73.95;95793.41;5095857;28;20040;-63
2021/12/05 13:26:34;;;;;;;14.52;11.20;;;;;;;8.44;73.34;95797.59;5089697;28;20470;-63
2021/12/05 13:29:15;;;;;;;10.07;8.02;;;;;;;8.38;73.15;95794.38;5079306;28;20043;-62
2021/12/05 13:31:49;;;;;;;10.52;7.15;;;;;;;8.36;73.62;95796.22;5083711;28;20020;-64
2021/12/05 13:34:33;;;;;;;9.10;7.07;;;;;;;8.31;73.66;95799.84;5092381;28;20040;-60
2021/12/05 13:37:13;;;;;;;9.60;7.80;;;;;;;8.28;74.05;95804.34;5074213;28;20592;-62
2021/12/05 13:39:46;;;;;;;13.80;7.53;;;;;;;8.31;74.40;95799.00;5073191;28;20032;-61
2021/12/05 13:42:26;;;;;;;11.88;8.85;;;;;;;8.28;74.67;95802.56;5073866;28;20033;-64
2021/12/05 13:45:03;;;;;;;13.60;8.80;;;;;;;8.30;74.71;95812.94;5075171;28;20068;-64
2021/12/05 13:47:46;;;;;;;11.95;8.85;;;;;;;8.36;74.37;95807.47;5075220;28;20050;-62
2021/12/05 13:50:27;;;;;;;10.52;7.22;;;;;;;8.36;73.53;95807.47;5075202;28;20032;-65
2021/12/05 13:52:57;;;;;;;11.88;7.63;;;;;;;8.33;73.33;95808.44;5075167;28;20059;-62
2021/12/05 13:55:44;;;;;;;9.68;7.53;;;;;;;8.26;73.65;95800.94;5075011;28;20446;-62
2021/12/05 13:58:17;;;;;;;10.80;8.32;;;;;;;8.35;73.63;95816.22;5075012;28;20039;-65
2021/12/05 14:00:46;;;;;;;8.50;7.57;;;;;;;8.31;73.57;95815.47;5074957;28;20044;-63
2021/12/05 14:03:11;;;;;;;10.68;8.07;;;;;;;8.29;73.08;95806.88;5074937;28;20111;-65
2021/12/05 14:05:46;;;;;;;10.77;8.68;;;;;;;8.25;73.46;95812.28;5074755;28;20133;-65
2021/12/05 14:08:12;;;;;;;11.80;7.07;;;;;;;8.26;73.19;95803.53;5074849;28;20023;-63
2021/12/05 14:10:43;;;;;;;20.42;15.63;;;;;;;8.22;73.57;95823.69;5074800;28;20021;-61
2021/12/05 14:13:12;;;;;;;;;;;;;;;8.19;74.14;95832.44;5075182;28;20070;-63
2021/12/05 14:15:38;;;;;;;14.18;9.73;;;;;;;8.12;74.59;95831.00;5074698;28;20263;-63
2021/12/05 14:18:04;;;;;;;12.57;8.80;;;;;;;8.08;74.73;95834.63;5074601;28;20019;-64
2021/12/05 14:20:30;;;;;;;12.73;9.20;;;;;;;8.04;75.00;95820.03;5074582;28;20482;-65
2021/12/05 14:23:05;;;;;;;11.93;9.90;;;;;;;7.94;75.61;95822.16;5074320;28;20058;-62
2021/12/05 14:25:36;;;;;;;11.65;10.15;;;;;;;7.98;75.59;95821.16;5074501;28;20032;-63
2021/12/05 14:28:03;;;;;;;12.98;10.20;;;;;;;7.97;75.72;95827.25;5074432;28;20514;-63
2021/12/05 14:30:35;;;;;;;12.32;10.48;;;;;;;7.95;75.70;95823.88;5074304;28;20028;-63
2021/12/05 14:33:02;;;;;;;11.38;9.80;;;;;;;7.95;76.02;95824.69;5074283;28;20052;-62
2021/12/05 14:35:41;;;;;;;12.55;10.35;;;;;;;7.99;75.82;95827.19;5074223;28;20020;-61
2021/12/05 14:38:08;;;;;;;15.02;10.38;;;;;;;7.94;76.13;95832.56;5074358;28;20024;-61
2021/12/05 14:40:36;;;;;;;14.65;11.73;;;;;;;7.97;76.22;95828.09;5074087;28;20104;-67
2021/12/05 14:43:06;;;;;;;15.93;11.98;;;;;;;7.87;76.64;95823.28;5074040;28;20551;-61
2021/12/05 14:45:39;;;;;;;15.07;12.30;;;;;;;7.82;76.97;95826.94;5074184;28;20090;-64
2021/12/05 14:48:15;;;;;;;15.68;11.77;;;;;;;7.79;76.70;95820.97;5074192;28;20458;-65
2021/12/05 14:50:43;;;;;;;16.77;13.15;;;;;;;7.76;77.18;95814.16;5074096;28;20059;-67
2021/12/05 14:53:17;;;;;;;22.40;17.45;;;;;;;7.66;77.57;95818.00;5073914;28;20390;-62
2021/12/05 14:55:43;;;;;;;23.02;16.90;;;;;;;7.60;78.00;95813.88;5073941;28;20115;-64
2021/12/05 14:58:14;;;;;;;21.88;17.90;;;;;;;7.51;78.63;95815.09;5073903;28;20439;-61
2021/12/05 15:00:49;;;;;;;23.70;18.50;;;;;;;7.52;78.34;95819.38;5073882;28;20051;-62
2021/12/05 15:03:19;;;;;;;27.75;19.88;;;;;;;7.57;78.03;95822.66;5073613;28;20097;-61
2021/12/05 15:05:58;;;;;;;35.40;24.98;;;;;;;7.50;78.40;95821.19;5073689;28;20032;-63
2021/12/05 15:08:28;;;;;;;39.22;29.20;;;;;;;7.48;78.46;95810.00;5073629;28;20041;-65
2021/12/05 15:10:57;;;;;;;43.92;31.00;;;;;;;7.31;79.57;95808.84;5073499;28;20055;-67
2021/12/05 15:13:23;;;;;;;42.20;30.50;;;;;;;7.21;80.24;95820.50;5073518;28;20029;-65
2021/12/05 15:15:49;;;;;;;46.70;32.50;;;;;;;7.20;80.29;95827.44;5073427;28;20043;-66
2021/12/05 15:18:34;;;;;;;41.90;29.45;;;;;;;7.14;80.66;95825.09;5073095;28;20044;-62
2021/12/05 15:21:03;;;;;;;41.25;28.83;;;;;;;7.07;80.71;95832.25;5073543;28;20101;-65
2021/12/05 15:23:31;;;;;;;38.88;28.95;;;;;;;7.00;80.79;95835.13;5073429;28;20406;-62
2021/12/05 15:26:02;;;;;;;40.33;28.10;;;;;;;6.91;81.38;95841.47;5073246;28;20027;-65
2021/12/05 15:28:29;;;;;;;;;;;;;;;6.94;81.56;95851.78;5073903;28;20020;-65
2021/12/05 15:30:54;;;;;;;42.40;28.70;;;;;;;6.85;81.88;95860.75;5073189;28;19912;-60
2021/12/05 15:33:25;;;;;;;44.20;29.25;;;;;;;6.90;81.49;95865.78;5073237;28;20035;-62
2021/12/05 15:35:58;;;;;;;40.83;28.02;;;;;;;6.87;81.84;95864.16;5073274;28;20418;-64
2021/12/05 15:38:30;;;;;;;39.20;27.95;;;;;;;6.90;81.53;95860.59;5073221;28;20492;-62
2021/12/05 15:41:06;;;;;;;46.47;31.90;;;;;;;6.93;81.85;95868.28;5073153;28;20028;-61
2021/12/05 15:43:35;;;;;;;51.13;34.05;;;;;;;6.95;81.74;95869.94;5073197;28;20077;-63
2021/12/05 15:46:04;;;;;;;54.30;36.38;;;;;;;7.01;81.86;95868.88;5073104;28;20089;-66
2021/12/05 15:48:35;;;;;;;56.25;38.30;;;;;;;7.07;81.58;95866.06;5073138;28;20031;-66
2021/12/05 15:51:03;;;;;;;46.38;30.42;;;;;;;7.14;80.78;95871.06;5073047;28;20028;-65
2021/12/05 15:53:33;;;;;;;49.42;31.75;;;;;;;6.96;81.22;95865.59;5073034;28;20096;-62
2021/12/05 15:56:03;;;;;;;39.72;25.75;;;;;;;6.88;81.83;95857.19;5073124;28;20028;-64
2021/12/05 15:58:42;;;;;;;42.63;27.30;;;;;;;6.71;82.59;95845.59;5072960;28;20024;-63
2021/12/05 16:01:21;;;;;;;54.03;33.17;;;;;;;6.67;82.54;95850.06;5073112;28;20024;-65
2021/12/05 16:03:51;;;;;;;49.00;32.83;;;;;;;6.67;82.76;95857.88;5073009;28;20028;-63
2021/12/05 16:06:19;;;;;;;46.70;32.45;;;;;;;6.76;82.68;95853.25;5072969;28;20031;-63
2021/12/05 16:08:49;;;;;;;45.55;31.80;;;;;;;6.85;82.36;95860.75;5072905;28;20029;-63
2021/12/05 16:11:20;;;;;;;49.13;32.45;;;;;;;6.91;81.95;95863.16;5072932;28;20383;-64
2021/12/05 16:13:47;;;;;;;;;;;;;;;6.97;81.80;95850.81;5073326;28;20384;-66
2021/12/05 16:16:27;;;;;;;44.97;29.92;;;;;;;6.97;81.59;95862.09;5072815;28;19912;-62
2021/12/05 16:18:56;;;;;;;48.25;32.50;;;;;;;6.98;81.52;95858.56;5071629;28;20038;-65
2021/12/05 16:21:37;;;;;;;53.20;34.97;;;;;;;6.98;81.55;95855.97;5072558;28;20483;-63
2021/12/05 16:24:13;;;;;;;54.42;35.72;;;;;;;6.99;81.58;95859.44;5072750;28;20029;-66
2021/12/05 16:26:40;;;;;;;56.83;35.17;;;;;;;6.92;81.76;95849.22;5072647;28;20028;-66
2021/12/05 16:29:11;;;;;;;65.30;35.55;;;;;;;6.91;81.81;95857.94;5073382;28;20044;-64
2021/12/05 16:31:41;;;;;;;55.10;33.67;;;;;;;6.80;82.08;95868.69;5076736;28;20118;-63
2021/12/05 16:34:09;;;;;;;57.20;34.23;;;;;;;6.73;82.44;95869.81;5076654;28;20020;-65
2021/12/05 16:36:38;;;;;;;55.65;35.05;;;;;;;6.70;82.60;95867.31;5076506;28;20295;-64
2021/12/05 16:39:10;;;;;;;54.95;34.13;;;;;;;6.65;82.88;95866.63;5076408;28;20102;-62
2021/12/05 16:41:36;;;;;;;57.00;34.50;;;;;;;6.60;83.00;95873.72;5076388;28;20035;-63
2021/12/05 16:44:01;;;;;;;56.97;36.22;;;;;;;6.61;83.49;95872.81;5076216;28;20386;-65
2021/12/05 16:46:37;;;;;;;55.35;34.72;;;;;;;6.66;83.42;95870.91;5076376;28;20114;-67
2021/12/05 16:49:09;;;;;;;61.63;34.63;;;;;;;6.65;83.10;95867.47;5076177;28;20036;-65
2021/12/05 16:51:52;;;;;;;57.42;35.05;;;;;;;6.61;83.38;95865.00;5076211;28;20024;-66
2021/12/05 16:54:26;;;;;;;58.78;34.67;;;;;;;6.54;83.56;95864.38;5076167;28;20386;-64
2021/12/05 16:56:59;;;;;;;49.67;33.22;;;;;;;6.57;83.45;95859.91;5076238;28;20439;-62
2021/12/05 16:59:32;;;;;;;49.28;32.78;;;;;;;6.61;83.71;95875.41;5076107;28;20039;-66
2021/12/05 17:02:30;;;;;;;49.17;31.60;;;;;;;6.64;83.32;95876.16;5076053;28;20463;-62
2021/12/05 17:05:07;;;;;;;48.88;32.63;;;;;;;6.68;82.82;95867.38;5076099;28;20032;-63
2021/12/05 17:07:49;;;;;;;53.10;35.45;;;;;;;6.67;83.15;95873.47;5075978;28;20106;-63
2021/12/05 17:10:21;;;;;;;55.47;34.58;;;;;;;6.66;83.43;95865.72;5075961;28;20459;-64
2021/12/05 17:13:32;;;;;;;49.72;32.33;;;;;;;6.72;83.02;95875.06;5075937;28;20493;-66
2021/12/05 17:16:07;;;;;;;57.28;33.97;;;;;;;6.71;83.16;95874.19;5075963;28;20017;-62
2021/12/05 17:18:43;;;;;;;54.67;34.05;;;;;;;6.77;83.02;95875.78;5075874;28;20052;-63
2021/12/05 17:21:12;;;;;;;51.63;33.10;;;;;;;6.83;82.56;95867.75;5075427;28;20123;-62
2021/12/05 17:23:49;;;;;;;53.05;33.63;;;;;;;6.89;82.51;95862.34;5075513;28;20064;-63